createdAt,value
2023-04-17T00:04:55.266Z,23.1
2023-04-17T00:10:56.976Z,22.9
2023-04-17T00:16:53.747Z,22.8
2023-04-17T00:22:30.107Z,23.2
2023-04-17T00:27:51.429Z,23.6
2023-04-17T00:33:43.685Z,23.3
2023-04-17T00:39:34.818Z,23.1
2023-04-17T00:45:26.591Z,23
2023-04-17T00:51:18.512Z,22.9
2023-04-17T00:57:09.688Z,23.3
2023-04-17T01:03:03.774Z,23.6
2023-04-17T01:08:41.637Z,23.3
2023-04-17T01:14:16.823Z,23.1
2023-04-17T01:20:09.144Z,23
2023-04-17T01:26:00.533Z,22.9
2023-04-17T01:31:51.887Z,23.3
2023-04-17T01:37:28.369Z,23.6
2023-04-17T01:43:19.669Z,23.3
2023-04-17T01:48:56.056Z,23.1
2023-04-17T01:54:47.955Z,23.1
2023-04-17T02:00:24.287Z,22.9
2023-04-17T02:06:01.775Z,23.3
2023-04-17T02:11:54.175Z,23.6
2023-04-17T02:17:30.216Z,23.3
2023-04-17T02:23:06.501Z,23.1
2023-04-17T02:28:58.562Z,23.1
2023-04-17T02:34:50.348Z,22.9
2023-04-17T02:40:41.532Z,23.3
2023-04-17T02:46:33.408Z,23.6
2023-04-17T02:52:09.862Z,23.3
2023-04-17T02:58:01.332Z,23.1
2023-04-17T03:03:55.023Z,23.1
2023-04-17T03:09:46.919Z,23
2023-04-17T03:15:40.264Z,23.4
2023-04-17T03:21:32.914Z,23.6
2023-04-17T03:27:09.005Z,23.3
2023-04-17T03:33:02.873Z,23.1
2023-04-17T03:38:39.550Z,23.1
2023-04-17T03:44:16.169Z,22.9
2023-04-17T03:50:07.475Z,23.3
2023-04-17T03:55:44.272Z,23.7
2023-04-17T04:01:20.376Z,23.4
2023-04-17T04:07:12.883Z,23.1
2023-04-17T04:13:04.972Z,23
2023-04-17T04:18:41.543Z,22.9
2023-04-17T04:24:18.135Z,23.2
2023-04-17T04:30:11.182Z,23.7
2023-04-17T04:35:33.020Z,23.4
2023-04-17T04:41:12.099Z,23.3
2023-04-17T04:46:33.130Z,23.1
2023-04-17T04:52:09.397Z,23
2023-04-17T04:57:28.686Z,23.1
2023-04-17T05:03:06.933Z,23.7
2023-04-17T05:08:44.775Z,23.4
2023-04-17T05:14:20.327Z,23.2
2023-04-17T05:20:14.899Z,23
2023-04-17T05:26:06.277Z,22.9
2023-04-17T05:31:42.101Z,23.1
2023-04-17T05:37:18.920Z,23.6
2023-04-17T05:42:58.214Z,23.5
2023-04-17T05:48:34.177Z,23.2
2023-04-17T05:54:10.764Z,23.1
2023-04-17T06:00:02.122Z,22.9
2023-04-17T06:05:42.233Z,23
2023-04-17T06:11:20.973Z,23.6
2023-04-17T06:16:57.045Z,23.6
2023-04-17T06:22:34.531Z,23.3
2023-04-17T06:28:10.826Z,23.1
2023-04-17T06:33:46.995Z,22.9
2023-04-17T06:39:31.204Z,22.9
2023-04-17T06:44:52.674Z,23.4
2023-04-17T06:50:28.990Z,23.6
2023-04-17T06:56:04.598Z,23.3
2023-04-17T07:01:44.536Z,23.1
2023-04-17T07:07:07.048Z,22.9
2023-04-17T07:12:27.489Z,22.9
2023-04-17T07:18:05.231Z,23.2
2023-04-17T07:23:42.329Z,23.7
2023-04-17T07:29:18.397Z,23.4
2023-04-17T07:34:55.975Z,23.1
2023-04-17T07:40:35.706Z,23
2023-04-17T07:46:14.070Z,22.9
2023-04-17T07:51:38.801Z,22.8
2023-04-17T07:57:18.149Z,22.8
2023-04-17T08:02:39.452Z,23.1
2023-04-17T08:08:18.815Z,23.1
2023-04-17T08:13:52.656Z,22.9
2023-04-17T08:19:29.224Z,22.8
2023-04-17T08:25:09.222Z,22.7
2023-04-17T08:30:47.817Z,22.6
2023-04-17T08:36:57.530Z,22.6
2023-04-17T08:42:35.651Z,22.5
2023-04-17T08:48:28.002Z,22.8
2023-04-17T08:54:19.321Z,23.1
2023-04-17T08:59:40.998Z,22.8
2023-04-17T09:05:20.458Z,22.7
2023-04-17T09:10:56.419Z,22.6
2023-04-17T09:16:49.761Z,22.6
2023-04-17T09:22:11.023Z,22.5
2023-04-17T09:27:31.570Z,22.5
2023-04-17T09:32:53.728Z,22.4
2023-04-17T09:38:32.989Z,22.5
2023-04-17T09:44:24.851Z,22.9
2023-04-17T09:50:17.149Z,22.8
2023-04-17T09:55:54.769Z,22.6
2023-04-17T10:01:46.949Z,22.5
2023-04-17T10:07:40.785Z,22.4
2023-04-17T10:13:32.907Z,22.4
2023-04-17T10:19:26.506Z,22.3
2023-04-17T10:25:19.952Z,22.3
2023-04-17T10:31:14.505Z,22.4
2023-04-17T10:37:08.197Z,22.8
2023-04-17T10:42:45.687Z,22.6
2023-04-17T10:48:38.846Z,22.5
2023-04-17T10:54:31.529Z,22.4
2023-04-17T11:00:27.116Z,22.4
2023-04-17T11:06:05.896Z,22.3
2023-04-17T11:11:59.685Z,22.3
2023-04-17T11:17:36.839Z,22.3
2023-04-17T11:23:13.787Z,22.4
2023-04-17T11:28:50.211Z,22.8
2023-04-17T11:34:11.973Z,22.6
2023-04-17T11:39:48.853Z,22.4
2023-04-17T11:45:25.853Z,22.4
2023-04-17T11:51:18.237Z,22.3
2023-04-17T11:57:09.484Z,22.3
2023-04-17T12:03:02.390Z,22.4
2023-04-17T12:08:42.068Z,22.8
2023-04-17T12:14:33.881Z,22.6
2023-04-17T12:20:10.187Z,22.4
2023-04-17T12:26:02.046Z,22.4
2023-04-17T12:31:38.630Z,22.3
2023-04-17T12:37:15.100Z,22.3
2023-04-17T12:43:05.166Z,22.3
2023-04-17T12:48:58.976Z,22.2
2023-04-17T12:54:50.465Z,22.2
2023-04-17T13:00:42.411Z,22.1
2023-04-17T13:06:36.543Z,22.1
2023-04-17T13:11:56.875Z,22.1
2023-04-17T13:17:50.488Z,22
2023-04-17T13:23:42.245Z,21.9
2023-04-17T13:29:35.893Z,21.9
2023-04-17T13:35:30.928Z,21.9
2023-04-17T13:41:07.672Z,21.8
2023-04-17T13:47:01.387Z,21.8
2023-04-17T13:52:54.030Z,21.7
2023-04-17T13:58:45.888Z,21.6
2023-04-17T14:04:26.493Z,21.6
2023-04-17T14:10:06.598Z,21.6
2023-04-17T14:15:57.889Z,21.5
2023-04-17T14:21:41.883Z,21.4
2023-04-17T14:27:18.788Z,21.4
2023-04-17T14:32:55.154Z,21.3
2023-04-17T14:38:36.334Z,21.3
2023-04-17T14:44:30.182Z,21.3
2023-04-17T14:50:33.430Z,21.3
2023-04-17T14:56:23.738Z,21.2
2023-04-17T15:02:16.382Z,21.2
2023-04-17T15:19:37.875Z,21.1
2023-04-17T15:25:29.270Z,21
2023-04-17T15:31:20.256Z,21
2023-04-17T15:37:12.015Z,20.9
2023-04-17T15:43:05.341Z,20.9
2023-04-17T15:49:08.002Z,20.9
2023-04-17T15:55:16.135Z,20.8
2023-04-17T16:01:07.126Z,20.8
2023-04-17T16:07:00.509Z,20.8
2023-04-17T16:12:37.171Z,20.8
2023-04-17T16:18:28.245Z,20.8
2023-04-17T16:24:19.914Z,20.7
2023-04-17T16:29:56.914Z,20.6
2023-04-17T16:35:48.853Z,20.6
2023-04-17T16:41:30.973Z,20.6
2023-04-17T16:47:46.776Z,20.6
2023-04-17T16:53:39.784Z,20.6
2023-04-17T16:59:30.724Z,20.6
2023-04-17T17:05:24.142Z,20.6
2023-04-17T17:10:29.593Z,20.5
2023-04-17T17:16:05.368Z,20.5
2023-04-17T17:21:57.773Z,20.5
2023-04-17T17:27:32.220Z,20.4
2023-04-17T17:33:09.242Z,20.5
2023-04-17T17:38:57.240Z,20.4
2023-04-17T17:44:48.829Z,20.4
2023-04-17T17:50:42.827Z,20.4
2023-04-17T17:56:21.552Z,20.4
2023-04-17T18:02:11.243Z,20.4
2023-04-17T18:07:50.140Z,20.4
2023-04-17T18:13:11.191Z,20.4
2023-04-17T18:18:47.856Z,20.4
2023-04-17T18:24:23.457Z,20.4
2023-04-17T18:29:59.905Z,20.3
2023-04-17T18:35:51.808Z,20.4
2023-04-17T18:41:30.384Z,20.3
2023-04-17T18:47:06.779Z,20.5
2023-04-17T18:52:48.323Z,20.9
2023-04-17T18:58:26.056Z,21.5
2023-04-17T19:03:32.813Z,21.4
2023-04-17T19:09:26.089Z,21.3
2023-04-17T19:15:18.935Z,21.3
2023-04-17T19:21:11.780Z,21.3
2023-04-17T19:27:04.883Z,21.3
2023-04-17T19:32:42.140Z,21.3
2023-04-17T19:38:19.830Z,21.3
2023-04-17T19:44:09.598Z,21
2023-04-17T19:50:04.773Z,21.7
2023-04-17T19:55:12.116Z,21.6
2023-04-17T20:01:05.496Z,21.5
2023-04-17T20:06:30.571Z,21.4
2023-04-17T20:12:22.974Z,21.4
2023-04-17T20:18:00.101Z,21.4
2023-04-17T20:23:53.755Z,21.4
2023-04-17T20:29:45.929Z,21.4
2023-04-17T20:35:38.516Z,21.3
2023-04-17T20:40:58.461Z,21.6
2023-04-17T20:46:51.158Z,21.8
2023-04-17T20:52:55.889Z,21.7
2023-04-17T20:58:46.766Z,21.7
2023-04-17T21:04:37.897Z,21.6
2023-04-17T21:10:14.792Z,21.6
2023-04-17T21:15:35.202Z,21.6
2023-04-17T21:21:12.121Z,21.6
2023-04-17T21:26:47.477Z,21.7
2023-04-17T21:32:23.551Z,21.4
2023-04-17T21:38:00.007Z,22.1
2023-04-17T21:43:53.817Z,22
2023-04-17T21:49:44.964Z,21.9
2023-04-17T21:55:37.284Z,21.9
2023-04-17T22:01:27.836Z,21.8
2023-04-17T22:07:20.123Z,21.9
2023-04-17T22:12:36.672Z,21.9
2023-04-17T22:18:28.613Z,21.9
2023-04-17T22:24:19.879Z,21.7
2023-04-17T22:29:56.429Z,21.8
2023-04-17T22:35:32.012Z,22.2
2023-04-17T22:41:22.929Z,22.1
2023-04-17T22:46:44.853Z,21.9
2023-04-17T22:52:21.491Z,21.9
2023-04-17T22:58:07.928Z,21.9
2023-04-17T23:04:00.655Z,21.9
2023-04-17T23:09:36.937Z,21.9
2023-04-17T23:15:12.993Z,21.9
2023-04-17T23:20:34.609Z,21.7
2023-04-17T23:26:00.603Z,21.9
2023-04-17T23:31:36.533Z,22.2
2023-04-17T23:37:13.423Z,22
2023-04-17T23:42:49.579Z,22
2023-04-17T23:48:42.060Z,21.9
2023-04-17T23:54:34.008Z,21.9
